sensor_id;sensor_type;location;lat;lon;timestamp;P1;durP1;ratioP1;P2;durP2;ratioP2
39196;SDS011;42889;51.112;13.772;2022-10-14T00:01:04;16.20;;;7.85;;
39196;SDS011;42889;51.112;13.772;2022-10-14T00:03:33;19.55;;;8.55;;
39196;SDS011;42889;51.112;13.772;2022-10-14T00:06:09;16.38;;;7.82;;
39196;SDS011;42889;51.112;13.772;2022-10-14T00:08:38;18.45;;;7.97;;
39196;SDS011;42889;51.112;13.772;2022-10-14T00:11:13;17.45;;;7.90;;
39196;SDS011;42889;51.112;13.772;2022-10-14T00:13:43;19.42;;;8.05;;
39196;SDS011;42889;51.112;13.772;2022-10-14T00:16:16;18.10;;;7.97;;
39196;SDS011;42889;51.112;13.772;2022-10-14T00:18:45;15.68;;;7.57;;
39196;SDS011;42889;51.112;13.772;2022-10-14T00:21:12;13.80;;;7.20;;
39196;SDS011;42889;51.112;13.772;2022-10-14T00:23:40;18.05;;;7.57;;
39196;SDS011;42889;51.112;13.772;2022-10-14T00:26:12;14.85;;;7.32;;
39196;SDS011;42889;51.112;13.772;2022-10-14T00:28:44;15.23;;;7.75;;
39196;SDS011;42889;51.112;13.772;2022-10-14T00:31:11;16.77;;;8.18;;
39196;SDS011;42889;51.112;13.772;2022-10-14T00:33:38;17.05;;;7.80;;
39196;SDS011;42889;51.112;13.772;2022-10-14T00:36:05;15.88;;;7.93;;
39196;SDS011;42889;51.112;13.772;2022-10-14T00:38:33;17.13;;;7.57;;
39196;SDS011;42889;51.112;13.772;2022-10-14T00:41:01;14.98;;;7.75;;
39196;SDS011;42889;51.112;13.772;2022-10-14T00:43:28;16.58;;;8.30;;
39196;SDS011;42889;51.112;13.772;2022-10-14T00:45:55;15.40;;;7.40;;
39196;SDS011;42889;51.112;13.772;2022-10-14T00:48:23;14.65;;;7.70;;
39196;SDS011;42889;51.112;13.772;2022-10-14T00:50:53;16.63;;;7.20;;
39196;SDS011;42889;51.112;13.772;2022-10-14T00:53:22;17.33;;;7.25;;
39196;SDS011;42889;51.112;13.772;2022-10-14T00:55:50;19.00;;;7.40;;
39196;SDS011;42889;51.112;13.772;2022-10-14T00:58:20;15.07;;;7.57;;
39196;SDS011;42889;51.112;13.772;2022-10-14T01:00:47;14.80;;;7.10;;
39196;SDS011;42889;51.112;13.772;2022-10-14T01:03:18;16.27;;;7.45;;
39196;SDS011;42889;51.112;13.772;2022-10-14T01:06:38;13.85;;;6.75;;
39196;SDS011;42889;51.112;13.772;2022-10-14T01:17:02;17.17;;;8.13;;
39196;SDS011;42889;51.112;13.772;2022-10-14T01:22:44;18.17;;;8.40;;
39196;SDS011;42889;51.112;13.772;2022-10-14T01:31:01;26.75;;;11.57;;
39196;SDS011;42889;51.112;13.772;2022-10-14T01:33:39;25.20;;;11.13;;
39196;SDS011;42889;51.112;13.772;2022-10-14T01:36:16;23.25;;;10.38;;
39196;SDS011;42889;51.112;13.772;2022-10-14T01:39:10;24.45;;;11.45;;
39196;SDS011;42889;51.112;13.772;2022-10-14T01:41:42;22.10;;;10.73;;
39196;SDS011;42889;51.112;13.772;2022-10-14T01:44:12;24.02;;;11.30;;
39196;SDS011;42889;51.112;13.772;2022-10-14T01:46:45;22.50;;;11.30;;
39196;SDS011;42889;51.112;13.772;2022-10-14T01:49:38;21.95;;;11.05;;
39196;SDS011;42889;51.112;13.772;2022-10-14T01:52:08;26.58;;;11.25;;
39196;SDS011;42889;51.112;13.772;2022-10-14T01:54:40;23.98;;;10.98;;
39196;SDS011;42889;51.112;13.772;2022-10-14T01:59:41;24.27;;;11.00;;
39196;SDS011;42889;51.112;13.772;2022-10-14T02:02:10;20.90;;;11.23;;
39196;SDS011;42889;51.112;13.772;2022-10-14T02:04:39;25.38;;;11.30;;
39196;SDS011;42889;51.112;13.772;2022-10-14T02:07:07;22.88;;;11.45;;
39196;SDS011;42889;51.112;13.772;2022-10-14T02:12:46;22.35;;;9.73;;
39196;SDS011;42889;51.112;13.772;2022-10-14T02:18:19;23.90;;;11.10;;
39196;SDS011;42889;51.112;13.772;2022-10-14T02:21:38;22.60;;;10.88;;
39196;SDS011;42889;51.112;13.772;2022-10-14T02:23:51;22.42;;;10.70;;
39196;SDS011;42889;51.112;13.772;2022-10-14T02:26:31;21.75;;;11.05;;
39196;SDS011;42889;51.112;13.772;2022-10-14T02:29:00;25.08;;;10.88;;
39196;SDS011;42889;51.112;13.772;2022-10-14T02:31:27;25.48;;;11.02;;
39196;SDS011;42889;51.112;13.772;2022-10-14T02:33:56;23.63;;;11.30;;
39196;SDS011;42889;51.112;13.772;2022-10-14T02:36:27;22.75;;;11.00;;
39196;SDS011;42889;51.112;13.772;2022-10-14T02:38:55;25.77;;;11.05;;
39196;SDS011;42889;51.112;13.772;2022-10-14T02:41:25;22.17;;;11.30;;
39196;SDS011;42889;51.112;13.772;2022-10-14T02:43:56;24.02;;;11.02;;
39196;SDS011;42889;51.112;13.772;2022-10-14T02:46:22;23.20;;;11.00;;
39196;SDS011;42889;51.112;13.772;2022-10-14T02:48:49;23.95;;;9.88;;
39196;SDS011;42889;51.112;13.772;2022-10-14T02:51:16;19.80;;;9.35;;
39196;SDS011;42889;51.112;13.772;2022-10-14T02:53:42;23.02;;;10.52;;
39196;SDS011;42889;51.112;13.772;2022-10-14T02:56:10;17.75;;;8.88;;
39196;SDS011;42889;51.112;13.772;2022-10-14T02:58:39;18.17;;;8.52;;
39196;SDS011;42889;51.112;13.772;2022-10-14T03:01:05;17.25;;;8.35;;
39196;SDS011;42889;51.112;13.772;2022-10-14T03:03:33;20.10;;;9.00;;
39196;SDS011;42889;51.112;13.772;2022-10-14T03:06:01;20.30;;;9.30;;
39196;SDS011;42889;51.112;13.772;2022-10-14T03:08:28;19.83;;;9.35;;
39196;SDS011;42889;51.112;13.772;2022-10-14T03:10:56;22.33;;;10.27;;
39196;SDS011;42889;51.112;13.772;2022-10-14T03:13:23;21.85;;;9.95;;
39196;SDS011;42889;51.112;13.772;2022-10-14T03:15:50;20.33;;;9.77;;
39196;SDS011;42889;51.112;13.772;2022-10-14T03:18:18;20.80;;;9.63;;
39196;SDS011;42889;51.112;13.772;2022-10-14T03:20:47;19.67;;;9.48;;
39196;SDS011;42889;51.112;13.772;2022-10-14T03:23:22;22.48;;;10.68;;
39196;SDS011;42889;51.112;13.772;2022-10-14T03:25:51;27.10;;;10.55;;
39196;SDS011;42889;51.112;13.772;2022-10-14T03:28:23;21.20;;;10.52;;
39196;SDS011;42889;51.112;13.772;2022-10-14T03:31:01;20.23;;;10.07;;
39196;SDS011;42889;51.112;13.772;2022-10-14T03:33:40;20.20;;;10.25;;
39196;SDS011;42889;51.112;13.772;2022-10-14T03:36:10;24.65;;;9.80;;
39196;SDS011;42889;51.112;13.772;2022-10-14T03:38:48;20.92;;;10.18;;
39196;SDS011;42889;51.112;13.772;2022-10-14T03:41:23;20.23;;;9.55;;
39196;SDS011;42889;51.112;13.772;2022-10-14T03:43:51;19.48;;;9.60;;
39196;SDS011;42889;51.112;13.772;2022-10-14T03:46:18;21.85;;;10.70;;
39196;SDS011;42889;51.112;13.772;2022-10-14T03:48:48;23.45;;;10.32;;
39196;SDS011;42889;51.112;13.772;2022-10-14T03:51:15;20.85;;;10.05;;
39196;SDS011;42889;51.112;13.772;2022-10-14T03:53:42;22.25;;;10.02;;
39196;SDS011;42889;51.112;13.772;2022-10-14T03:56:11;22.98;;;10.35;;
39196;SDS011;42889;51.112;13.772;2022-10-14T03:58:37;20.13;;;10.20;;
39196;SDS011;42889;51.112;13.772;2022-10-14T04:01:09;19.15;;;10.18;;
39196;SDS011;42889;51.112;13.772;2022-10-14T04:03:56;23.35;;;10.45;;
39196;SDS011;42889;51.112;13.772;2022-10-14T04:06:25;22.60;;;11.00;;
39196;SDS011;42889;51.112;13.772;2022-10-14T04:08:55;22.90;;;10.38;;
39196;SDS011;42889;51.112;13.772;2022-10-14T04:11:28;22.90;;;10.80;;
39196;SDS011;42889;51.112;13.772;2022-10-14T04:14:01;21.88;;;10.30;;
39196;SDS011;42889;51.112;13.772;2022-10-14T04:16:30;21.85;;;10.10;;
39196;SDS011;42889;51.112;13.772;2022-10-14T04:19:00;20.80;;;9.95;;
39196;SDS011;42889;51.112;13.772;2022-10-14T04:21:29;21.13;;;11.05;;
39196;SDS011;42889;51.112;13.772;2022-10-14T04:23:56;18.60;;;9.35;;
39196;SDS011;42889;51.112;13.772;2022-10-14T04:26:35;20.52;;;9.60;;
39196;SDS011;42889;51.112;13.772;2022-10-14T04:31:40;17.05;;;8.88;;
39196;SDS011;42889;51.112;13.772;2022-10-14T04:34:08;21.08;;;9.68;;
39196;SDS011;42889;51.112;13.772;2022-10-14T04:36:38;19.27;;;9.95;;
39196;SDS011;42889;51.112;13.772;2022-10-14T04:39:18;17.77;;;8.73;;
39196;SDS011;42889;51.112;13.772;2022-10-14T04:41:45;16.08;;;7.93;;
39196;SDS011;42889;51.112;13.772;2022-10-14T04:44:16;16.35;;;8.18;;
39196;SDS011;42889;51.112;13.772;2022-10-14T04:46:47;17.15;;;8.15;;
39196;SDS011;42889;51.112;13.772;2022-10-14T04:49:16;18.83;;;9.25;;
39196;SDS011;42889;51.112;13.772;2022-10-14T04:51:51;21.23;;;9.30;;
39196;SDS011;42889;51.112;13.772;2022-10-14T04:54:25;17.40;;;9.30;;
39196;SDS011;42889;51.112;13.772;2022-10-14T04:56:54;20.83;;;10.32;;
39196;SDS011;42889;51.112;13.772;2022-10-14T04:59:20;21.10;;;10.00;;
39196;SDS011;42889;51.112;13.772;2022-10-14T05:01:57;20.85;;;10.00;;
39196;SDS011;42889;51.112;13.772;2022-10-14T05:04:33;30.10;;;14.10;;
39196;SDS011;42889;51.112;13.772;2022-10-14T05:07:00;26.27;;;13.25;;
39196;SDS011;42889;51.112;13.772;2022-10-14T05:09:27;27.05;;;12.07;;
39196;SDS011;42889;51.112;13.772;2022-10-14T05:11:55;24.83;;;12.32;;
39196;SDS011;42889;51.112;13.772;2022-10-14T05:14:29;23.70;;;11.80;;
39196;SDS011;42889;51.112;13.772;2022-10-14T05:17:07;24.05;;;11.10;;
39196;SDS011;42889;51.112;13.772;2022-10-14T05:19:34;24.73;;;11.75;;
39196;SDS011;42889;51.112;13.772;2022-10-14T05:22:01;23.17;;;10.25;;
39196;SDS011;42889;51.112;13.772;2022-10-14T05:24:35;17.33;;;9.02;;
39196;SDS011;42889;51.112;13.772;2022-10-14T05:27:02;17.05;;;8.65;;
39196;SDS011;42889;51.112;13.772;2022-10-14T05:29:35;19.48;;;8.65;;
39196;SDS011;42889;51.112;13.772;2022-10-14T05:32:02;17.63;;;8.10;;
39196;SDS011;42889;51.112;13.772;2022-10-14T05:34:39;23.23;;;11.80;;
39196;SDS011;42889;51.112;13.772;2022-10-14T05:37:14;25.15;;;11.73;;
39196;SDS011;42889;51.112;13.772;2022-10-14T05:44:43;23.17;;;12.77;;
39196;SDS011;42889;51.112;13.772;2022-10-14T05:47:11;29.15;;;13.57;;
39196;SDS011;42889;51.112;13.772;2022-10-14T05:49:40;27.08;;;13.20;;
39196;SDS011;42889;51.112;13.772;2022-10-14T05:52:07;26.92;;;13.15;;
39196;SDS011;42889;51.112;13.772;2022-10-14T05:54:34;26.20;;;13.13;;
39196;SDS011;42889;51.112;13.772;2022-10-14T05:57:02;25.17;;;13.07;;
39196;SDS011;42889;51.112;13.772;2022-10-14T05:59:29;32.70;;;14.90;;
39196;SDS011;42889;51.112;13.772;2022-10-14T06:01:56;27.67;;;14.00;;
39196;SDS011;42889;51.112;13.772;2022-10-14T06:04:23;25.80;;;12.88;;
39196;SDS011;42889;51.112;13.772;2022-10-14T06:06:50;29.58;;;12.75;;
39196;SDS011;42889;51.112;13.772;2022-10-14T06:09:17;29.30;;;14.20;;
39196;SDS011;42889;51.112;13.772;2022-10-14T06:11:44;29.90;;;13.55;;
39196;SDS011;42889;51.112;13.772;2022-10-14T06:14:11;26.88;;;12.90;;
39196;SDS011;42889;51.112;13.772;2022-10-14T06:16:38;26.73;;;12.93;;
39196;SDS011;42889;51.112;13.772;2022-10-14T06:19:05;26.73;;;13.63;;
39196;SDS011;42889;51.112;13.772;2022-10-14T06:21:32;28.63;;;14.32;;
39196;SDS011;42889;51.112;13.772;2022-10-14T06:23:58;28.00;;;13.95;;
39196;SDS011;42889;51.112;13.772;2022-10-14T06:26:25;32.95;;;13.20;;
39196;SDS011;42889;51.112;13.772;2022-10-14T06:28:52;34.50;;;13.40;;
39196;SDS011;42889;51.112;13.772;2022-10-14T06:31:19;25.40;;;12.90;;
39196;SDS011;42889;51.112;13.772;2022-10-14T06:33:46;31.13;;;14.32;;
39196;SDS011;42889;51.112;13.772;2022-10-14T06:36:12;26.63;;;13.45;;
39196;SDS011;42889;51.112;13.772;2022-10-14T06:38:39;33.20;;;13.50;;
39196;SDS011;42889;51.112;13.772;2022-10-14T06:41:06;25.63;;;12.80;;
39196;SDS011;42889;51.112;13.772;2022-10-14T06:43:32;26.13;;;12.13;;
39196;SDS011;42889;51.112;13.772;2022-10-14T06:46:00;29.42;;;12.00;;
39196;SDS011;42889;51.112;13.772;2022-10-14T06:48:28;28.00;;;12.20;;
39196;SDS011;42889;51.112;13.772;2022-10-14T06:50:57;23.17;;;11.02;;
39196;SDS011;42889;51.112;13.772;2022-10-14T06:53:25;25.27;;;11.47;;
39196;SDS011;42889;51.112;13.772;2022-10-14T06:56:01;22.80;;;10.60;;
39196;SDS011;42889;51.112;13.772;2022-10-14T06:58:30;23.02;;;11.45;;
39196;SDS011;42889;51.112;13.772;2022-10-14T07:01:02;20.98;;;10.65;;
39196;SDS011;42889;51.112;13.772;2022-10-14T07:03:32;22.15;;;10.45;;
39196;SDS011;42889;51.112;13.772;2022-10-14T07:06:02;19.67;;;9.52;;
39196;SDS011;42889;51.112;13.772;2022-10-14T07:08:29;16.67;;;8.43;;
39196;SDS011;42889;51.112;13.772;2022-10-14T07:10:56;24.90;;;9.30;;
39196;SDS011;42889;51.112;13.772;2022-10-14T07:13:23;21.95;;;9.00;;
39196;SDS011;42889;51.112;13.772;2022-10-14T07:15:50;17.20;;;7.82;;
39196;SDS011;42889;51.112;13.772;2022-10-14T07:18:17;21.17;;;8.00;;
39196;SDS011;42889;51.112;13.772;2022-10-14T07:20:44;20.80;;;9.80;;
39196;SDS011;42889;51.112;13.772;2022-10-14T07:23:12;20.40;;;8.52;;
39196;SDS011;42889;51.112;13.772;2022-10-14T07:25:38;18.65;;;9.07;;
39196;SDS011;42889;51.112;13.772;2022-10-14T07:28:05;22.30;;;10.60;;
39196;SDS011;42889;51.112;13.772;2022-10-14T07:30:32;27.08;;;11.32;;
39196;SDS011;42889;51.112;13.772;2022-10-14T07:32:58;23.38;;;10.75;;
39196;SDS011;42889;51.112;13.772;2022-10-14T07:35:25;22.60;;;10.65;;
39196;SDS011;42889;51.112;13.772;2022-10-14T07:37:53;25.08;;;11.40;;
39196;SDS011;42889;51.112;13.772;2022-10-14T07:40:20;24.02;;;10.90;;
39196;SDS011;42889;51.112;13.772;2022-10-14T07:42:47;21.40;;;11.15;;
39196;SDS011;42889;51.112;13.772;2022-10-14T07:45:13;22.58;;;10.63;;
39196;SDS011;42889;51.112;13.772;2022-10-14T07:47:43;23.77;;;11.68;;
39196;SDS011;42889;51.112;13.772;2022-10-14T07:50:13;24.00;;;11.80;;
39196;SDS011;42889;51.112;13.772;2022-10-14T07:52:39;25.48;;;11.43;;
39196;SDS011;42889;51.112;13.772;2022-10-14T07:55:06;27.48;;;12.15;;
39196;SDS011;42889;51.112;13.772;2022-10-14T07:57:33;25.23;;;12.40;;
39196;SDS011;42889;51.112;13.772;2022-10-14T07:59:59;28.13;;;12.15;;
39196;SDS011;42889;51.112;13.772;2022-10-14T08:02:26;27.67;;;12.73;;
39196;SDS011;42889;51.112;13.772;2022-10-14T08:04:54;25.50;;;13.15;;
39196;SDS011;42889;51.112;13.772;2022-10-14T08:07:38;44.05;;;13.43;;
39196;SDS011;42889;51.112;13.772;2022-10-14T08:10:05;29.15;;;13.15;;
39196;SDS011;42889;51.112;13.772;2022-10-14T08:12:31;24.98;;;12.20;;
39196;SDS011;42889;51.112;13.772;2022-10-14T08:14:58;23.90;;;11.98;;
39196;SDS011;42889;51.112;13.772;2022-10-14T08:17:24;25.55;;;12.52;;
39196;SDS011;42889;51.112;13.772;2022-10-14T08:19:51;25.27;;;12.07;;
39196;SDS011;42889;51.112;13.772;2022-10-14T08:22:18;26.90;;;12.35;;
39196;SDS011;42889;51.112;13.772;2022-10-14T08:24:45;28.02;;;12.65;;
39196;SDS011;42889;51.112;13.772;2022-10-14T08:27:12;23.50;;;11.98;;
39196;SDS011;42889;51.112;13.772;2022-10-14T08:29:38;24.25;;;11.60;;
39196;SDS011;42889;51.112;13.772;2022-10-14T08:32:05;21.20;;;11.20;;
39196;SDS011;42889;51.112;13.772;2022-10-14T08:34:31;27.25;;;11.50;;
39196;SDS011;42889;51.112;13.772;2022-10-14T08:37:00;27.13;;;11.63;;
39196;SDS011;42889;51.112;13.772;2022-10-14T08:39:27;23.38;;;11.10;;
39196;SDS011;42889;51.112;13.772;2022-10-14T08:47:06;22.10;;;11.45;;
39196;SDS011;42889;51.112;13.772;2022-10-14T08:52:35;21.83;;;9.88;;
39196;SDS011;42889;51.112;13.772;2022-10-14T08:55:13;24.67;;;10.40;;
39196;SDS011;42889;51.112;13.772;2022-10-14T08:57:53;19.92;;;10.00;;
39196;SDS011;42889;51.112;13.772;2022-10-14T09:00:36;22.20;;;10.63;;
39196;SDS011;42889;51.112;13.772;2022-10-14T09:03:09;22.70;;;10.20;;
39196;SDS011;42889;51.112;13.772;2022-10-14T09:05:41;21.90;;;10.07;;
39196;SDS011;42889;51.112;13.772;2022-10-14T09:08:09;22.50;;;10.20;;
39196;SDS011;42889;51.112;13.772;2022-10-14T09:10:41;24.48;;;10.60;;
39196;SDS011;42889;51.112;13.772;2022-10-14T09:13:10;21.10;;;9.75;;
39196;SDS011;42889;51.112;13.772;2022-10-14T09:15:41;21.70;;;9.35;;
39196;SDS011;42889;51.112;13.772;2022-10-14T09:18:20;20.45;;;9.30;;
39196;SDS011;42889;51.112;13.772;2022-10-14T09:20:52;16.98;;;8.52;;
39196;SDS011;42889;51.112;13.772;2022-10-14T09:23:21;19.75;;;8.50;;
39196;SDS011;42889;51.112;13.772;2022-10-14T09:25:54;16.00;;;8.15;;
39196;SDS011;42889;51.112;13.772;2022-10-14T09:28:39;17.08;;;7.28;;
39196;SDS011;42889;51.112;13.772;2022-10-14T09:31:09;16.00;;;7.47;;
39196;SDS011;42889;51.112;13.772;2022-10-14T09:33:38;14.70;;;7.00;;
39196;SDS011;42889;51.112;13.772;2022-10-14T09:38:43;13.52;;;6.82;;
39196;SDS011;42889;51.112;13.772;2022-10-14T09:41:13;14.68;;;6.15;;
39196;SDS011;42889;51.112;13.772;2022-10-14T09:46:47;15.57;;;6.70;;
39196;SDS011;42889;51.112;13.772;2022-10-14T09:51:48;14.40;;;6.00;;
39196;SDS011;42889;51.112;13.772;2022-10-14T09:54:26;13.93;;;6.72;;
39196;SDS011;42889;51.112;13.772;2022-10-14T09:57:13;15.35;;;6.45;;
39196;SDS011;42889;51.112;13.772;2022-10-14T09:59:54;14.32;;;6.82;;
39196;SDS011;42889;51.112;13.772;2022-10-14T10:02:30;13.02;;;6.00;;
39196;SDS011;42889;51.112;13.772;2022-10-14T10:05:23;13.38;;;5.97;;
39196;SDS011;42889;51.112;13.772;2022-10-14T10:08:13;11.38;;;5.78;;
39196;SDS011;42889;51.112;13.772;2022-10-14T10:13:36;11.73;;;5.90;;
39196;SDS011;42889;51.112;13.772;2022-10-14T10:16:17;10.95;;;5.55;;
39196;SDS011;42889;51.112;13.772;2022-10-14T10:18:50;11.23;;;5.90;;
39196;SDS011;42889;51.112;13.772;2022-10-14T10:21:22;13.43;;;5.78;;
39196;SDS011;42889;51.112;13.772;2022-10-14T10:23:51;10.80;;;4.93;;
39196;SDS011;42889;51.112;13.772;2022-10-14T10:28:52;9.40;;;4.97;;
39196;SDS011;42889;51.112;13.772;2022-10-14T10:34:29;13.05;;;5.90;;
39196;SDS011;42889;51.112;13.772;2022-10-14T10:42:31;11.25;;;4.80;;
39196;SDS011;42889;51.112;13.772;2022-10-14T10:47:51;12.98;;;5.60;;
39196;SDS011;42889;51.112;13.772;2022-10-14T10:50:31;11.60;;;5.00;;
39196;SDS011;42889;51.112;13.772;2022-10-14T10:53:14;10.30;;;5.50;;
39196;SDS011;42889;51.112;13.772;2022-10-14T10:56:05;12.70;;;5.35;;
39196;SDS011;42889;51.112;13.772;2022-10-14T11:01:28;11.73;;;3.88;;
39196;SDS011;42889;51.112;13.772;2022-10-14T11:04:25;11.13;;;5.00;;
39196;SDS011;42889;51.112;13.772;2022-10-14T11:15:21;9.00;;;3.88;;
39196;SDS011;42889;51.112;13.772;2022-10-14T11:20:53;9.55;;;5.05;;
39196;SDS011;42889;51.112;13.772;2022-10-14T11:37:06;9.30;;;4.72;;
39196;SDS011;42889;51.112;13.772;2022-10-14T11:39:39;12.52;;;4.72;;
39196;SDS011;42889;51.112;13.772;2022-10-14T11:47:53;10.63;;;4.57;;
39196;SDS011;42889;51.112;13.772;2022-10-14T11:50:43;8.25;;;3.38;;
39196;SDS011;42889;51.112;13.772;2022-10-14T11:53:16;11.13;;;4.55;;
39196;SDS011;42889;51.112;13.772;2022-10-14T11:56:18;10.10;;;4.25;;
39196;SDS011;42889;51.112;13.772;2022-10-14T12:04:52;9.77;;;4.30;;
39196;SDS011;42889;51.112;13.772;2022-10-14T12:07:24;9.38;;;4.90;;
39196;SDS011;42889;51.112;13.772;2022-10-14T12:09:56;8.48;;;4.50;;
39196;SDS011;42889;51.112;13.772;2022-10-14T12:12:28;7.32;;;3.65;;
39196;SDS011;42889;51.112;13.772;2022-10-14T12:15:00;10.20;;;3.70;;
39196;SDS011;42889;51.112;13.772;2022-10-14T12:18:15;9.57;;;3.00;;
39196;SDS011;42889;51.112;13.772;2022-10-14T12:20:46;6.03;;;1.65;;
39196;SDS011;42889;51.112;13.772;2022-10-14T12:23:29;6.00;;;2.75;;
39196;SDS011;42889;51.112;13.772;2022-10-14T12:26:09;5.55;;;1.25;;
39196;SDS011;42889;51.112;13.772;2022-10-14T12:28:45;3.17;;;1.02;;
39196;SDS011;42889;51.112;13.772;2022-10-14T12:34:13;3.08;;;0.85;;
39196;SDS011;42889;51.112;13.772;2022-10-14T12:36:44;2.08;;;0.60;;
39196;SDS011;42889;51.112;13.772;2022-10-14T12:44:13;2.85;;;0.75;;
39196;SDS011;42889;51.112;13.772;2022-10-14T12:46:45;1.98;;;0.70;;
39196;SDS011;42889;51.112;13.772;2022-10-14T12:51:55;5.35;;;1.35;;
39196;SDS011;42889;51.112;13.772;2022-10-14T12:54:23;3.90;;;1.27;;
39196;SDS011;42889;51.112;13.772;2022-10-14T12:56:55;3.05;;;1.30;;
39196;SDS011;42889;51.112;13.772;2022-10-14T13:02:15;3.20;;;1.42;;
39196;SDS011;42889;51.112;13.772;2022-10-14T13:26:55;4.68;;;1.80;;
39196;SDS011;42889;51.112;13.772;2022-10-14T13:29:31;5.07;;;1.80;;
39196;SDS011;42889;51.112;13.772;2022-10-14T13:35:13;5.60;;;2.05;;
39196;SDS011;42889;51.112;13.772;2022-10-14T13:38:13;5.15;;;2.38;;
39196;SDS011;42889;51.112;13.772;2022-10-14T13:40:53;6.13;;;2.10;;
39196;SDS011;42889;51.112;13.772;2022-10-14T13:48:33;10.90;;;3.78;;
39196;SDS011;42889;51.112;13.772;2022-10-14T13:54:16;7.97;;;3.50;;
39196;SDS011;42889;51.112;13.772;2022-10-14T13:59:55;7.35;;;3.42;;
39196;SDS011;42889;51.112;13.772;2022-10-14T14:02:42;8.80;;;3.92;;
39196;SDS011;42889;51.112;13.772;2022-10-14T14:05:18;8.18;;;3.70;;
39196;SDS011;42889;51.112;13.772;2022-10-14T14:07:45;11.13;;;4.63;;
39196;SDS011;42889;51.112;13.772;2022-10-14T14:10:33;7.90;;;3.95;;
39196;SDS011;42889;51.112;13.772;2022-10-14T14:13:11;11.82;;;3.88;;
39196;SDS011;42889;51.112;13.772;2022-10-14T14:15:38;11.48;;;4.65;;
39196;SDS011;42889;51.112;13.772;2022-10-14T14:18:22;11.15;;;4.72;;
39196;SDS011;42889;51.112;13.772;2022-10-14T14:21:10;12.32;;;5.10;;
39196;SDS011;42889;51.112;13.772;2022-10-14T14:23:50;11.82;;;5.15;;
39196;SDS011;42889;51.112;13.772;2022-10-14T14:26:18;15.05;;;6.35;;
39196;SDS011;42889;51.112;13.772;2022-10-14T14:28:46;13.35;;;6.63;;
39196;SDS011;42889;51.112;13.772;2022-10-14T14:31:15;14.05;;;7.22;;
39196;SDS011;42889;51.112;13.772;2022-10-14T14:33:44;14.20;;;7.13;;
39196;SDS011;42889;51.112;13.772;2022-10-14T14:36:14;17.55;;;7.45;;
39196;SDS011;42889;51.112;13.772;2022-10-14T14:39:03;17.17;;;7.78;;
39196;SDS011;42889;51.112;13.772;2022-10-14T14:41:30;16.15;;;8.15;;
39196;SDS011;42889;51.112;13.772;2022-10-14T14:44:00;18.52;;;7.70;;
39196;SDS011;42889;51.112;13.772;2022-10-14T14:46:50;16.23;;;8.45;;
39196;SDS011;42889;51.112;13.772;2022-10-14T14:49:22;19.75;;;7.93;;
39196;SDS011;42889;51.112;13.772;2022-10-14T14:51:57;16.27;;;7.30;;
39196;SDS011;42889;51.112;13.772;2022-10-14T14:54:25;17.85;;;8.63;;
39196;SDS011;42889;51.112;13.772;2022-10-14T14:59:27;17.33;;;8.05;;
39196;SDS011;42889;51.112;13.772;2022-10-14T15:01:57;17.23;;;8.90;;
39196;SDS011;42889;51.112;13.772;2022-10-14T15:04:27;16.25;;;8.40;;
39196;SDS011;42889;51.112;13.772;2022-10-14T15:07:01;19.65;;;7.97;;
39196;SDS011;42889;51.112;13.772;2022-10-14T15:09:42;17.77;;;8.30;;
39196;SDS011;42889;51.112;13.772;2022-10-14T15:12:24;16.83;;;7.90;;
39196;SDS011;42889;51.112;13.772;2022-10-14T15:14:58;17.75;;;8.18;;
39196;SDS011;42889;51.112;13.772;2022-10-14T15:17:28;18.85;;;8.75;;
39196;SDS011;42889;51.112;13.772;2022-10-14T15:19:59;16.13;;;7.82;;
39196;SDS011;42889;51.112;13.772;2022-10-14T15:22:45;14.38;;;7.50;;
39196;SDS011;42889;51.112;13.772;2022-10-14T15:27:47;16.23;;;7.43;;
39196;SDS011;42889;51.112;13.772;2022-10-14T15:32:48;16.08;;;7.82;;
39196;SDS011;42889;51.112;13.772;2022-10-14T15:35:17;16.58;;;9.15;;
39196;SDS011;42889;51.112;13.772;2022-10-14T15:37:45;20.65;;;9.13;;
39196;SDS011;42889;51.112;13.772;2022-10-14T15:40:15;18.00;;;9.10;;
39196;SDS011;42889;51.112;13.772;2022-10-14T15:42:44;19.92;;;8.77;;
39196;SDS011;42889;51.112;13.772;2022-10-14T15:45:12;20.20;;;8.70;;
39196;SDS011;42889;51.112;13.772;2022-10-14T15:47:40;18.55;;;8.77;;
39196;SDS011;42889;51.112;13.772;2022-10-14T15:50:10;22.23;;;8.48;;
39196;SDS011;42889;51.112;13.772;2022-10-14T15:52:41;16.65;;;8.65;;
39196;SDS011;42889;51.112;13.772;2022-10-14T15:55:12;15.85;;;8.20;;
39196;SDS011;42889;51.112;13.772;2022-10-14T15:57:49;15.43;;;8.00;;
39196;SDS011;42889;51.112;13.772;2022-10-14T16:00:17;17.67;;;8.20;;
39196;SDS011;42889;51.112;13.772;2022-10-14T16:02:55;19.40;;;9.45;;
39196;SDS011;42889;51.112;13.772;2022-10-14T16:05:26;21.05;;;9.75;;
39196;SDS011;42889;51.112;13.772;2022-10-14T16:07:54;18.10;;;9.55;;
39196;SDS011;42889;51.112;13.772;2022-10-14T16:10:22;19.23;;;8.95;;
39196;SDS011;42889;51.112;13.772;2022-10-14T16:12:55;20.55;;;9.93;;
39196;SDS011;42889;51.112;13.772;2022-10-14T16:17:58;18.67;;;9.10;;
39196;SDS011;42889;51.112;13.772;2022-10-14T16:20:24;20.38;;;9.30;;
39196;SDS011;42889;51.112;13.772;2022-10-14T16:22:52;22.35;;;10.02;;
39196;SDS011;42889;51.112;13.772;2022-10-14T16:25:20;19.23;;;9.65;;
39196;SDS011;42889;51.112;13.772;2022-10-14T16:27:50;17.83;;;9.43;;
39196;SDS011;42889;51.112;13.772;2022-10-14T16:30:18;19.25;;;9.40;;
39196;SDS011;42889;51.112;13.772;2022-10-14T16:32:44;18.25;;;9.07;;
39196;SDS011;42889;51.112;13.772;2022-10-14T16:35:11;19.27;;;9.40;;
39196;SDS011;42889;51.112;13.772;2022-10-14T16:37:37;20.77;;;9.65;;
39196;SDS011;42889;51.112;13.772;2022-10-14T16:40:05;19.23;;;10.05;;
39196;SDS011;42889;51.112;13.772;2022-10-14T16:42:32;19.30;;;9.35;;
39196;SDS011;42889;51.112;13.772;2022-10-14T16:44:59;20.48;;;10.18;;
39196;SDS011;42889;51.112;13.772;2022-10-14T16:47:26;20.38;;;9.25;;
39196;SDS011;42889;51.112;13.772;2022-10-14T16:49:54;17.23;;;9.20;;
39196;SDS011;42889;51.112;13.772;2022-10-14T16:52:22;20.02;;;9.88;;
39196;SDS011;42889;51.112;13.772;2022-10-14T16:54:51;18.40;;;8.60;;
39196;SDS011;42889;51.112;13.772;2022-10-14T16:57:18;18.35;;;10.00;;
39196;SDS011;42889;51.112;13.772;2022-10-14T16:59:44;19.73;;;9.43;;
39196;SDS011;42889;51.112;13.772;2022-10-14T17:02:12;21.58;;;10.00;;
39196;SDS011;42889;51.112;13.772;2022-10-14T17:04:41;20.15;;;10.23;;
39196;SDS011;42889;51.112;13.772;2022-10-14T17:07:08;20.08;;;10.05;;
39196;SDS011;42889;51.112;13.772;2022-10-14T17:09:35;23.42;;;10.52;;
39196;SDS011;42889;51.112;13.772;2022-10-14T17:12:02;21.40;;;10.65;;
39196;SDS011;42889;51.112;13.772;2022-10-14T17:14:36;26.60;;;10.93;;
39196;SDS011;42889;51.112;13.772;2022-10-14T17:17:03;24.17;;;10.82;;
39196;SDS011;42889;51.112;13.772;2022-10-14T17:19:30;20.33;;;10.82;;
39196;SDS011;42889;51.112;13.772;2022-10-14T17:21:56;26.30;;;11.30;;
39196;SDS011;42889;51.112;13.772;2022-10-14T17:24:23;26.17;;;12.10;;
39196;SDS011;42889;51.112;13.772;2022-10-14T17:26:51;24.45;;;11.60;;
39196;SDS011;42889;51.112;13.772;2022-10-14T17:29:17;24.67;;;11.60;;